Time;durP1;ratioP1;P1;durP2;ratioP2;P2;SDS_P1;SDS_P2;PMS_P1;PMS_P2;Temp;Humidity;BMP_temperature;BMP_pressure;BME280_temperature;BME280_humidity;BME280_pressure;Samples;Min_cycle;Max_cycle;Signal;HPM_P1;HPM_P2
2021/10/04 00:00:49;;;;;;;1.33;1.30;;;12.20;99.90;;;;;;477990;248;28384;-76
2021/10/04 00:02:50;;;;;;;1.10;1.10;;;12.20;99.90;;;;;;477990;249;28107;-76
2021/10/04 00:04:51;;;;;;;1.33;1.23;;;12.20;99.90;;;;;;478023;248;28176;-76
2021/10/04 00:06:52;;;;;;;1.10;1.10;;;12.10;99.90;;;;;;477973;248;28475;-76
2021/10/04 00:08:54;;;;;;;1.10;1.10;;;12.10;99.90;;;;;;478022;249;28807;-76
2021/10/04 00:10:55;;;;;;;1.10;1.10;;;12.10;99.90;;;;;;477995;247;29305;-76
2021/10/04 00:12:56;;;;;;;0.97;0.97;;;12.10;99.90;;;;;;478016;248;29677;-76
2021/10/04 00:14:57;;;;;;;1.07;1.07;;;12.10;99.90;;;;;;478012;248;28766;-76
2021/10/04 00:16:59;;;;;;;0.97;0.97;;;12.10;99.90;;;;;;478035;248;28342;-75
2021/10/04 00:19:00;;;;;;;1.00;1.00;;;12.00;99.90;;;;;;477971;249;28233;-76
2021/10/04 00:21:01;;;;;;;0.90;0.90;;;12.00;99.90;;;;;;477971;248;28265;-76
2021/10/04 00:23:02;;;;;;;1.00;1.00;;;12.00;99.90;;;;;;478003;248;28264;-75
2021/10/04 00:25:04;;;;;;;0.87;0.87;;;11.90;99.90;;;;;;478011;248;28172;-76
2021/10/04 00:27:05;;;;;;;1.00;1.00;;;11.90;99.90;;;;;;478034;248;28484;-76
2021/10/04 00:29:06;;;;;;;0.90;0.90;;;11.90;99.90;;;;;;478037;248;28335;-74
2021/10/04 00:31:07;;;;;;;1.00;1.00;;;11.80;99.90;;;;;;477999;246;28625;-74
2021/10/04 00:33:09;;;;;;;0.80;0.80;;;11.80;99.90;;;;;;478001;249;28867;-76
2021/10/04 00:35:10;;;;;;;0.90;0.90;;;11.80;99.90;;;;;;477983;248;28704;-76
2021/10/04 00:37:11;;;;;;;0.90;0.90;;;11.80;99.90;;;;;;478054;249;28689;-77
2021/10/04 00:39:12;;;;;;;0.90;0.90;;;11.80;99.90;;;;;;478180;248;28742;-75
2021/10/04 00:41:14;;;;;;;1.10;0.90;;;11.80;99.90;;;;;;478181;248;28775;-75
2021/10/04 00:43:15;;;;;;;0.93;0.93;;;11.80;99.90;;;;;;478309;248;28341;-75
2021/10/04 00:45:16;;;;;;;0.97;0.97;;;11.80;99.90;;;;;;478289;244;28214;-74
2021/10/04 00:47:18;;;;;;;0.90;0.90;;;11.80;99.90;;;;;;478083;249;28213;-76
2021/10/04 00:49:19;;;;;;;0.90;0.90;;;11.80;99.90;;;;;;478080;249;27973;-77
2021/10/04 00:51:20;;;;;;;0.90;0.90;;;11.70;99.90;;;;;;478098;248;28773;-76
2021/10/04 00:53:21;;;;;;;1.00;1.00;;;11.70;99.90;;;;;;478108;246;28760;-76
2021/10/04 00:55:23;;;;;;;0.90;0.90;;;11.70;99.90;;;;;;478114;249;28574;-76
2021/10/04 00:57:24;;;;;;;0.90;0.90;;;11.70;99.90;;;;;;478067;248;28676;-77
2021/10/04 00:59:25;;;;;;;1.13;1.03;;;11.80;99.90;;;;;;478094;249;28000;-77
2021/10/04 01:01:28;;;;;;;0.93;0.93;;;11.80;99.90;;;;;;478045;248;28270;-76
2021/10/04 01:03:28;;;;;;;0.90;0.90;;;11.80;99.90;;;;;;477880;248;28400;-76
2021/10/04 01:05:29;;;;;;;0.90;0.90;;;11.80;99.90;;;;;;477985;248;28063;-76
2021/10/04 01:07:30;;;;;;;0.90;0.90;;;11.80;99.90;;;;;;477961;248;28340;-76
2021/10/04 01:09:31;;;;;;;0.90;0.90;;;11.80;99.90;;;;;;478008;248;28827;-77
2021/10/04 01:11:33;;;;;;;0.80;0.80;;;11.80;99.90;;;;;;478051;248;28232;-77
2021/10/04 01:13:34;;;;;;;0.90;0.90;;;11.80;99.90;;;;;;478024;248;28237;-76
2021/10/04 01:15:35;;;;;;;1.00;1.00;;;11.80;99.90;;;;;;478046;249;28789;-76
2021/10/04 01:17:36;;;;;;;1.00;1.00;;;11.70;99.90;;;;;;478026;248;28851;-76
2021/10/04 01:19:38;;;;;;;0.90;0.90;;;11.80;99.90;;;;;;478124;248;29041;-77
2021/10/04 01:21:39;;;;;;;0.90;0.90;;;11.70;99.90;;;;;;478093;248;28824;-76
2021/10/04 01:23:40;;;;;;;0.97;0.97;;;11.80;99.90;;;;;;477998;248;28312;-76
2021/10/04 01:25:41;;;;;;;0.90;0.90;;;11.70;99.90;;;;;;477978;248;28178;-76
2021/10/04 01:27:44;;;;;;;2.70;1.10;;;11.70;99.90;;;;;;478006;248;28026;-76
2021/10/04 01:29:44;;;;;;;1.03;0.93;;;11.70;99.90;;;;;;477902;249;28130;-76
2021/10/04 01:31:45;;;;;;;1.33;1.07;;;11.80;99.90;;;;;;477976;248;28336;-77
2021/10/04 01:33:46;;;;;;;0.97;0.97;;;11.70;99.90;;;;;;477978;248;28334;-76
2021/10/04 01:35:48;;;;;;;0.90;0.90;;;11.70;99.90;;;;;;477934;248;28316;-76
2021/10/04 01:37:49;;;;;;;0.90;0.90;;;11.80;99.90;;;;;;477957;248;28112;-76
2021/10/04 01:39:50;;;;;;;1.00;1.00;;;11.70;99.90;;;;;;477976;248;28467;-77
2021/10/04 01:41:51;;;;;;;0.90;0.90;;;11.70;99.90;;;;;;477966;248;28578;-76
2021/10/04 01:43:53;;;;;;;0.90;0.90;;;11.70;99.90;;;;;;478022;248;28755;-75
2021/10/04 01:45:54;;;;;;;1.00;1.00;;;11.80;99.90;;;;;;477938;248;30373;-75
2021/10/04 01:47:59;;;;;;;0.90;0.90;;;11.80;99.90;;;;;;478020;249;28132;-78
2021/10/04 01:49:57;;;;;;;0.90;0.90;;;11.80;99.90;;;;;;477725;249;28128;-75
2021/10/04 01:51:58;;;;;;;1.53;1.10;;;11.80;99.90;;;;;;478013;248;28221;-77
2021/10/04 01:53:59;;;;;;;2.50;1.10;;;11.80;99.90;;;;;;478107;248;28093;-77
2021/10/04 01:56:03;;;;;;;0.90;0.90;;;11.80;99.90;;;;;;478032;248;28219;-76
2021/10/04 01:58:04;;;;;;;1.43;1.20;;;11.80;99.90;;;;;;477981;249;28080;-76
2021/10/04 02:00:05;;;;;;;0.90;0.90;;;11.80;99.90;;;;;;477984;248;28240;-76
2021/10/04 02:02:06;;;;;;;1.00;1.00;;;11.80;99.90;;;;;;477984;248;28214;-76
2021/10/04 02:04:08;;;;;;;1.83;1.03;;;11.80;99.90;;;;;;477971;248;28214;-76
2021/10/04 02:06:09;;;;;;;1.20;1.20;;;11.80;99.90;;;;;;477941;249;28255;-76
2021/10/04 02:08:10;;;;;;;2.00;1.07;;;11.80;99.90;;;;;;477967;248;28270;-76
2021/10/04 02:10:11;;;;;;;1.10;1.10;;;11.70;99.90;;;;;;477975;249;28693;-77
2021/10/04 02:12:13;;;;;;;1.33;1.23;;;11.70;99.90;;;;;;478005;248;28735;-77
2021/10/04 02:14:14;;;;;;;0.90;0.90;;;11.70;99.90;;;;;;477973;248;28746;-76
2021/10/04 02:16:16;;;;;;;1.17;1.17;;;11.70;99.90;;;;;;477985;248;28490;-76
2021/10/04 02:18:17;;;;;;;1.10;1.10;;;11.70;99.90;;;;;;477983;248;28239;-76
2021/10/04 02:20:18;;;;;;;1.00;1.00;;;11.70;99.90;;;;;;477983;248;28220;-76
2021/10/04 02:22:19;;;;;;;1.90;1.10;;;11.80;99.90;;;;;;477942;248;28122;-76
2021/10/04 02:24:20;;;;;;;1.53;1.00;;;11.80;99.90;;;;;;477995;249;28287;-76
2021/10/04 02:26:22;;;;;;;0.90;0.90;;;11.80;99.90;;;;;;477986;248;28346;-76
2021/10/04 02:28:23;;;;;;;1.00;1.00;;;11.80;99.90;;;;;;478046;248;28215;-77
2021/10/04 02:30:24;;;;;;;1.03;1.03;;;11.80;99.90;;;;;;478012;249;28553;-76
2021/10/04 02:32:25;;;;;;;1.33;1.33;;;11.80;99.90;;;;;;477998;248;28441;-76
2021/10/04 02:34:27;;;;;;;1.50;1.40;;;11.80;99.90;;;;;;477945;248;28678;-76
2021/10/04 02:36:28;;;;;;;1.50;1.40;;;11.70;99.90;;;;;;477942;248;28777;-76
2021/10/04 02:38:29;;;;;;;1.27;1.20;;;11.70;99.90;;;;;;477990;248;28588;-76
2021/10/04 02:40:30;;;;;;;1.53;1.40;;;11.80;99.90;;;;;;477987;248;28277;-76
2021/10/04 02:42:32;;;;;;;1.27;1.27;;;11.70;99.90;;;;;;477949;248;28412;-76
2021/10/04 02:44:33;;;;;;;1.17;1.17;;;11.70;99.90;;;;;;477959;248;28054;-76
2021/10/04 02:46:34;;;;;;;1.30;1.20;;;11.70;99.90;;;;;;477967;248;28173;-76
2021/10/04 02:48:35;;;;;;;1.20;1.20;;;11.70;99.90;;;;;;478005;248;28109;-77
2021/10/04 02:50:37;;;;;;;1.47;1.37;;;11.70;99.90;;;;;;478008;249;28078;-76
2021/10/04 02:52:38;;;;;;;1.00;1.00;;;11.70;99.90;;;;;;478018;248;28296;-77
2021/10/04 02:54:39;;;;;;;1.40;1.30;;;11.70;99.90;;;;;;477981;248;28160;-76
2021/10/04 02:56:40;;;;;;;1.10;1.10;;;11.80;99.90;;;;;;478022;248;28411;-76
2021/10/04 02:58:42;;;;;;;1.20;1.20;;;11.80;99.90;;;;;;478007;248;28265;-76
2021/10/04 03:00:43;;;;;;;1.43;1.20;;;11.80;99.90;;;;;;477985;248;28819;-76
2021/10/04 03:02:44;;;;;;;1.50;1.40;;;11.70;99.90;;;;;;477985;248;28718;-77
2021/10/04 03:04:45;;;;;;;1.40;1.30;;;11.70;99.90;;;;;;478011;249;28293;-77
2021/10/04 03:06:47;;;;;;;1.43;1.30;;;11.70;99.90;;;;;;478062;248;28317;-76
2021/10/04 03:08:48;;;;;;;1.13;1.13;;;11.80;99.90;;;;;;478030;248;28215;-76
2021/10/04 03:10:49;;;;;;;1.20;1.20;;;11.80;99.90;;;;;;478017;248;28181;-76
2021/10/04 03:12:50;;;;;;;1.17;1.17;;;11.70;99.90;;;;;;477983;248;28242;-76
2021/10/04 03:14:52;;;;;;;1.20;1.20;;;11.70;99.90;;;;;;477998;248;28255;-76
2021/10/04 03:16:53;;;;;;;1.13;1.13;;;11.70;99.90;;;;;;478009;248;28382;-77
2021/10/04 03:18:54;;;;;;;1.17;1.17;;;11.70;99.90;;;;;;477999;249;28228;-76
2021/10/04 03:20:55;;;;;;;1.50;1.40;;;11.80;99.90;;;;;;477878;248;28400;-76
2021/10/04 03:22:57;;;;;;;1.37;1.30;;;11.70;99.90;;;;;;477992;248;28588;-76
2021/10/04 03:24:58;;;;;;;1.30;1.30;;;11.80;99.90;;;;;;478026;248;28973;-77
2021/10/04 03:26:59;;;;;;;1.27;1.27;;;11.80;99.90;;;;;;478007;248;28760;-76
2021/10/04 03:29:00;;;;;;;1.30;1.20;;;11.80;99.90;;;;;;477984;249;28373;-76
2021/10/04 03:31:02;;;;;;;1.33;1.33;;;11.70;99.90;;;;;;477961;248;28340;-76
2021/10/04 03:33:03;;;;;;;1.20;1.20;;;11.80;99.90;;;;;;478008;248;28184;-76
2021/10/04 03:35:04;;;;;;;1.70;1.60;;;11.80;99.90;;;;;;478038;248;28047;-76
2021/10/04 03:37:05;;;;;;;1.57;1.47;;;11.80;99.90;;;;;;477955;248;28134;-77
2021/10/04 03:39:07;;;;;;;1.40;1.40;;;11.70;99.90;;;;;;478045;248;28323;-76
2021/10/04 03:41:08;;;;;;;1.50;1.47;;;11.70;99.90;;;;;;477964;249;28197;-75
2021/10/04 03:43:09;;;;;;;1.40;1.30;;;11.70;99.90;;;;;;477980;248;28513;-76
2021/10/04 03:45:10;;;;;;;1.70;1.57;;;11.70;99.90;;;;;;477988;248;28253;-76
2021/10/04 03:47:12;;;;;;;1.30;1.30;;;11.70;99.90;;;;;;478008;248;28756;-76
2021/10/04 03:49:13;;;;;;;1.57;1.47;;;11.70;99.90;;;;;;477990;249;29011;-76
2021/10/04 03:51:14;;;;;;;1.60;1.50;;;11.70;99.90;;;;;;477980;248;28910;-75
2021/10/04 03:53:15;;;;;;;1.50;1.40;;;11.70;99.90;;;;;;478003;248;28699;-75
2021/10/04 03:55:17;;;;;;;1.23;1.23;;;11.70;99.90;;;;;;478027;248;28117;-75
2021/10/04 03:57:18;;;;;;;1.30;1.20;;;11.70;99.90;;;;;;477988;248;28275;-76
2021/10/04 03:59:19;;;;;;;1.30;1.30;;;11.70;99.90;;;;;;477981;249;28358;-75
2021/10/04 04:01:20;;;;;;;1.13;1.13;;;11.70;99.90;;;;;;478026;249;28585;-75
2021/10/04 04:03:23;;;;;;;1.30;1.30;;;;;;;;;;478004;248;28364;-75
2021/10/04 04:05:24;;;;;;;1.87;1.30;;;11.70;99.90;;;;;;471526;252;27751;-76
2021/10/04 04:07:25;;;;;;;1.33;1.33;;;11.70;99.90;;;;;;477982;246;28626;-75
2021/10/04 04:09:27;;;;;;;1.63;1.53;;;11.70;99.90;;;;;;477965;248;28154;-75
2021/10/04 04:11:28;;;;;;;1.30;1.20;;;11.70;99.90;;;;;;478002;248;28097;-75
2021/10/04 04:13:29;;;;;;;1.67;1.30;;;11.70;99.90;;;;;;478034;248;28443;-76
2021/10/04 04:15:30;;;;;;;1.50;1.40;;;11.60;99.90;;;;;;478034;248;28392;-76
2021/10/04 04:17:32;;;;;;;1.40;1.40;;;11.60;99.90;;;;;;477986;249;28435;-76
2021/10/04 04:19:33;;;;;;;1.50;1.40;;;11.60;99.90;;;;;;477936;248;28375;-75
2021/10/04 04:21:34;;;;;;;2.30;1.20;;;11.60;99.90;;;;;;477986;248;28172;-75
2021/10/04 04:23:35;;;;;;;1.33;1.33;;;11.60;99.90;;;;;;477966;248;29111;-75
2021/10/04 04:25:37;;;;;;;1.27;1.27;;;11.60;99.90;;;;;;477999;248;28693;-76
2021/10/04 04:27:38;;;;;;;1.23;1.23;;;11.60;99.90;;;;;;478006;248;28432;-75
2021/10/04 04:29:39;;;;;;;1.60;1.33;;;11.60;99.90;;;;;;478104;248;28684;-76
2021/10/04 04:31:40;;;;;;;1.30;1.30;;;11.60;99.90;;;;;;478956;238;28159;-75
2021/10/04 04:33:42;;;;;;;1.70;1.60;;;11.60;99.90;;;;;;477379;249;28009;-74
2021/10/04 04:35:43;;;;;;;1.50;1.40;;;11.60;99.90;;;;;;477513;249;28058;-76
2021/10/04 04:37:44;;;;;;;1.77;1.67;;;11.60;99.90;;;;;;477586;249;28171;-76
2021/10/04 04:39:45;;;;;;;1.37;1.30;;;11.60;99.90;;;;;;477088;249;28462;-74
2021/10/04 04:41:47;;;;;;;1.73;1.63;;;11.60;99.90;;;;;;478524;235;28071;-76
2021/10/04 04:43:48;;;;;;;1.53;1.50;;;11.60;99.90;;;;;;487802;244;27948;-74
2021/10/04 04:45:49;;;;;;;1.70;1.60;;;11.70;99.90;;;;;;487846;244;27895;-77
2021/10/04 04:47:51;;;;;;;2.80;2.60;;;11.60;99.90;;;;;;487807;244;27876;-75
2021/10/04 04:49:52;;;;;;;3.93;2.17;;;11.70;99.90;;;;;;487809;244;28025;-76
2021/10/04 04:51:53;;;;;;;2.20;2.10;;;11.70;99.90;;;;;;487809;244;27978;-76
2021/10/04 04:53:54;;;;;;;2.20;2.00;;;11.60;99.90;;;;;;487793;244;27920;-76
2021/10/04 04:55:55;;;;;;;1.90;1.80;;;11.60;99.90;;;;;;487834;244;28167;-76
2021/10/04 04:57:57;;;;;;;1.83;1.70;;;11.60;99.90;;;;;;487826;244;28368;-76
2021/10/04 04:59:58;;;;;;;1.70;1.60;;;11.60;99.90;;;;;;487819;244;28741;-76
2021/10/04 05:01:59;;;;;;;1.73;1.63;;;11.70;99.90;;;;;;487816;244;29715;-76
2021/10/04 05:04:00;;;;;;;2.83;1.37;;;11.70;99.90;;;;;;487806;244;28687;-76
2021/10/04 05:06:02;;;;;;;1.87;1.77;;;11.60;99.90;;;;;;487814;244;28679;-76
2021/10/04 05:08:03;;;;;;;1.53;1.43;;;11.60;99.90;;;;;;487786;244;28012;-76
2021/10/04 05:10:04;;;;;;;1.30;1.30;;;11.60;99.90;;;;;;487816;244;28209;-75
2021/10/04 05:12:05;;;;;;;1.43;1.33;;;11.60;99.90;;;;;;487802;244;28266;-76
2021/10/04 05:14:07;;;;;;;1.40;1.30;;;11.50;99.90;;;;;;487828;244;28119;-76
2021/10/04 05:16:08;;;;;;;2.40;1.57;;;11.50;99.90;;;;;;487806;244;28000;-76
2021/10/04 05:18:09;;;;;;;1.40;1.30;;;11.60;99.90;;;;;;487856;244;28142;-76
2021/10/04 05:20:11;;;;;;;1.60;1.60;;;11.60;99.90;;;;;;487788;244;28193;-76
2021/10/04 05:22:12;;;;;;;1.40;1.40;;;11.60;99.90;;;;;;487801;244;28071;-76
2021/10/04 05:24:13;;;;;;;1.60;1.60;;;11.60;99.90;;;;;;487776;244;28559;-76
2021/10/04 05:26:14;;;;;;;1.60;1.60;;;11.60;99.90;;;;;;487801;244;28546;-76
2021/10/04 05:28:16;;;;;;;1.60;1.50;;;11.60;99.90;;;;;;487816;244;28586;-76
2021/10/04 05:30:17;;;;;;;1.40;1.40;;;11.60;99.90;;;;;;487813;244;28800;-76
2021/10/04 05:32:18;;;;;;;1.27;1.27;;;11.50;99.90;;;;;;487752;244;28094;-76
2021/10/04 05:34:19;;;;;;;1.60;1.50;;;11.50;99.90;;;;;;487802;244;28066;-76
2021/10/04 05:36:21;;;;;;;1.40;1.40;;;11.60;99.90;;;;;;487792;244;28141;-76
2021/10/04 05:38:22;;;;;;;1.80;1.40;;;11.60;99.90;;;;;;487828;244;28141;-75
2021/10/04 05:40:23;;;;;;;1.67;1.60;;;11.50;99.90;;;;;;487775;244;28279;-76
2021/10/04 05:42:24;;;;;;;1.33;1.33;;;11.50;99.90;;;;;;487769;244;28265;-76
2021/10/04 05:44:26;;;;;;;1.30;1.30;;;11.50;99.90;;;;;;487748;241;28002;-76
2021/10/04 05:46:27;;;;;;;1.40;1.33;;;11.50;99.90;;;;;;487735;244;28210;-76
2021/10/04 05:48:28;;;;;;;1.30;1.30;;;11.50;99.90;;;;;;487745;244;28753;-76
2021/10/04 05:50:29;;;;;;;1.50;1.50;;;11.50;99.90;;;;;;487767;244;28552;-76
2021/10/04 05:52:31;;;;;;;1.93;1.30;;;11.50;99.90;;;;;;487798;244;28501;-75
2021/10/04 05:54:32;;;;;;;1.60;1.50;;;11.40;99.90;;;;;;487798;244;28544;-75
2021/10/04 05:56:33;;;;;;;1.27;1.27;;;11.50;99.90;;;;;;487768;244;28058;-75
2021/10/04 05:58:34;;;;;;;1.20;1.20;;;11.50;99.90;;;;;;487760;244;27907;-75
2021/10/04 06:00:36;;;;;;;1.40;1.40;;;11.50;99.90;;;;;;487803;244;28198;-76
2021/10/04 06:02:37;;;;;;;1.20;1.20;;;11.50;99.90;;;;;;487792;244;28238;-75
2021/10/04 06:04:38;;;;;;;1.50;1.40;;;11.50;99.90;;;;;;487781;244;28141;-75
2021/10/04 06:06:39;;;;;;;1.57;1.57;;;11.50;99.90;;;;;;487800;244;28313;-75
2021/10/04 06:08:41;;;;;;;1.30;1.30;;;11.50;99.90;;;;;;487792;244;27914;-76
2021/10/04 06:10:42;;;;;;;1.40;1.40;;;11.50;99.90;;;;;;487795;244;28113;-76
2021/10/04 06:12:43;;;;;;;1.60;1.50;;;11.50;99.90;;;;;;487607;244;28756;-76
2021/10/04 06:14:44;;;;;;;1.43;1.43;;;11.50;99.90;;;;;;487812;244;28680;-76
2021/10/04 06:16:46;;;;;;;1.70;1.60;;;11.50;99.90;;;;;;487954;244;28660;-76
2021/10/04 06:18:47;;;;;;;1.60;1.50;;;11.50;99.90;;;;;;488110;244;28558;-76
2021/10/04 06:20:49;;;;;;;1.20;1.20;;;11.50;99.90;;;;;;488090;244;27878;-76
2021/10/04 06:22:49;;;;;;;1.40;1.40;;;11.50;99.90;;;;;;487999;244;28014;-76
2021/10/04 06:24:51;;;;;;;1.27;1.17;;;11.50;99.90;;;;;;488098;244;28204;-76
2021/10/04 06:26:52;;;;;;;1.50;1.40;;;11.50;99.90;;;;;;487990;244;28179;-76
2021/10/04 06:28:53;;;;;;;1.83;1.50;;;11.50;99.90;;;;;;488054;244;28469;-76
2021/10/04 06:30:54;;;;;;;1.30;1.30;;;11.60;99.90;;;;;;487942;244;28124;-76
2021/10/04 06:32:56;;;;;;;1.33;1.33;;;11.60;99.90;;;;;;487899;244;28110;-76
2021/10/04 06:34:57;;;;;;;1.67;1.57;;;11.60;99.90;;;;;;487874;244;28108;-76
2021/10/04 06:36:58;;;;;;;1.87;1.77;;;11.60;99.90;;;;;;487862;244;28577;-76
2021/10/04 06:38:59;;;;;;;2.93;1.50;;;11.60;99.90;;;;;;487871;240;28606;-76
2021/10/04 06:41:01;;;;;;;1.20;1.20;;;11.60;99.90;;;;;;487868;244;28698;-76
2021/10/04 06:43:02;;;;;;;1.70;1.60;;;11.60;99.90;;;;;;487814;244;28286;-76
2021/10/04 06:45:03;;;;;;;1.50;1.50;;;11.60;99.90;;;;;;488096;244;28230;-76
2021/10/04 06:47:04;;;;;;;1.53;1.47;;;11.70;99.90;;;;;;488102;244;28200;-76
2021/10/04 06:49:06;;;;;;;1.67;1.57;;;11.70;99.90;;;;;;488065;244;28105;-76
2021/10/04 06:51:07;;;;;;;1.50;1.50;;;11.70;99.90;;;;;;488095;244;28242;-76
2021/10/04 06:53:08;;;;;;;1.40;1.40;;;11.70;99.90;;;;;;488135;244;28259;-76
2021/10/04 06:55:09;;;;;;;1.30;1.30;;;11.80;99.90;;;;;;488001;244;28166;-76
2021/10/04 06:57:11;;;;;;;1.60;1.50;;;11.80;99.90;;;;;;487929;244;28118;-76
2021/10/04 06:59:12;;;;;;;1.73;1.63;;;11.80;99.90;;;;;;487897;244;28242;-76
2021/10/04 07:01:13;;;;;;;1.93;1.70;;;11.80;99.90;;;;;;487909;244;28306;-76
2021/10/04 07:03:14;;;;;;;1.40;1.30;;;11.80;99.90;;;;;;487887;244;28730;-76
2021/10/04 07:05:16;;;;;;;1.43;1.43;;;11.80;99.90;;;;;;487950;244;29254;-76
2021/10/04 07:07:17;;;;;;;1.30;1.30;;;11.80;99.90;;;;;;487927;244;28883;-76
2021/10/04 07:09:18;;;;;;;1.67;1.57;;;11.80;99.90;;;;;;487925;244;28127;-76
2021/10/04 07:11:19;;;;;;;1.27;1.27;;;11.80;99.90;;;;;;487917;244;28292;-76
2021/10/04 07:13:21;;;;;;;1.53;1.43;;;11.80;99.90;;;;;;487923;244;28370;-76
2021/10/04 07:15:22;;;;;;;1.67;1.60;;;11.80;99.90;;;;;;487898;244;28090;-76
2021/10/04 07:17:23;;;;;;;1.20;1.20;;;11.70;99.90;;;;;;487890;244;28407;-76
2021/10/04 07:19:24;;;;;;;1.10;1.10;;;11.80;99.90;;;;;;487929;244;28081;-76
2021/10/04 07:21:26;;;;;;;1.33;1.30;;;11.80;99.90;;;;;;487886;244;28202;-76
2021/10/04 07:23:27;;;;;;;1.30;1.30;;;11.80;99.90;;;;;;487921;244;28450;-77
2021/10/04 07:25:28;;;;;;;1.40;1.40;;;11.80;99.90;;;;;;487298;244;28228;-76
2021/10/04 07:27:29;;;;;;;1.80;1.70;;;11.80;99.90;;;;;;487477;244;28412;-76
2021/10/04 07:29:31;;;;;;;1.50;1.40;;;11.80;99.90;;;;;;487698;244;29277;-76
2021/10/04 07:31:32;;;;;;;1.17;1.17;;;11.90;99.90;;;;;;487892;244;28932;-76
2021/10/04 07:33:33;;;;;;;1.40;1.30;;;11.90;99.90;;;;;;487894;244;28120;-76
2021/10/04 07:35:34;;;;;;;1.03;1.03;;;11.90;99.90;;;;;;487932;244;28341;-76
2021/10/04 07:37:36;;;;;;;1.30;1.20;;;11.90;99.90;;;;;;487915;244;28110;-76
2021/10/04 07:39:37;;;;;;;1.10;1.10;;;11.90;99.90;;;;;;487904;244;28179;-76
2021/10/04 07:41:38;;;;;;;1.20;1.20;;;11.90;99.90;;;;;;487908;244;28336;-76
2021/10/04 07:43:39;;;;;;;1.40;1.30;;;11.90;99.90;;;;;;487885;244;28401;-76
2021/10/04 07:45:41;;;;;;;1.10;1.10;;;12.00;99.90;;;;;;487917;244;28265;-76
2021/10/04 07:47:42;;;;;;;1.53;1.20;;;12.00;99.90;;;;;;487915;244;28392;-77
2021/10/04 07:49:43;;;;;;;1.07;1.07;;;12.00;99.90;;;;;;487903;244;28739;-76
2021/10/04 07:51:44;;;;;;;1.17;1.17;;;12.00;99.90;;;;;;487920;244;28560;-76
2021/10/04 07:53:47;;;;;;;1.10;1.10;;;12.10;99.90;;;;;;487908;244;28429;-76
2021/10/04 07:55:47;;;;;;;1.10;1.00;;;12.20;99.90;;;;;;487886;244;28836;-76
2021/10/04 07:57:51;;;;;;;1.10;1.10;;;12.20;99.90;;;;;;487949;244;28186;-76
2021/10/04 07:59:49;;;;;;;1.40;1.30;;;12.20;99.90;;;;;;487441;244;28762;-76
2021/10/04 08:01:51;;;;;;;1.40;1.30;;;12.30;99.90;;;;;;487902;244;28355;-76
2021/10/04 08:03:52;;;;;;;0.97;0.97;;;12.30;99.90;;;;;;487910;244;28417;-77
2021/10/04 08:05:53;;;;;;;1.53;1.43;;;12.40;99.90;;;;;;487959;244;28372;-76
2021/10/04 08:07:54;;;;;;;1.33;1.10;;;12.40;99.90;;;;;;487965;244;28462;-76
2021/10/04 08:09:56;;;;;;;1.43;1.23;;;12.40;99.90;;;;;;487947;244;28774;-76
2021/10/04 08:11:57;;;;;;;1.10;1.10;;;12.50;99.90;;;;;;487971;244;28789;-76
2021/10/04 08:13:58;;;;;;;1.30;1.20;;;12.60;99.90;;;;;;487949;244;28660;-76
2021/10/04 08:16:00;;;;;;;1.40;1.30;;;12.50;99.90;;;;;;484130;244;28617;-76
2021/10/04 08:18:01;;;;;;;1.20;1.20;;;12.50;99.90;;;;;;485008;244;28663;-76
2021/10/04 08:20:02;;;;;;;1.20;1.20;;;12.60;99.90;;;;;;484857;245;28360;-76
2021/10/04 08:22:03;;;;;;;1.20;1.20;;;12.60;99.90;;;;;;484699;245;28258;-77
2021/10/04 08:24:04;;;;;;;0.97;0.97;;;12.60;99.90;;;;;;484839;245;28241;-76
2021/10/04 08:26:06;;;;;;;1.00;1.00;;;12.60;99.90;;;;;;484892;245;28351;-76
2021/10/04 08:28:07;;;;;;;1.07;1.07;;;12.60;99.90;;;;;;484958;245;28302;-76
2021/10/04 08:30:08;;;;;;;1.00;1.00;;;12.50;99.90;;;;;;484984;245;28428;-77
2021/10/04 08:32:09;;;;;;;1.13;1.13;;;12.60;99.90;;;;;;484979;245;28886;-76
2021/10/04 08:34:11;;;;;;;1.10;1.10;;;12.60;99.90;;;;;;484970;245;28128;-76
2021/10/04 08:36:12;;;;;;;1.20;1.20;;;12.60;99.90;;;;;;484912;245;28816;-76
2021/10/04 08:38:13;;;;;;;1.00;1.00;;;12.60;99.90;;;;;;484963;245;28710;-76
2021/10/04 08:40:18;;;;;;;1.10;1.10;;;12.60;99.90;;;;;;484938;245;29200;-77
2021/10/04 08:42:16;;;;;;;1.27;1.27;;;12.80;99.90;;;;;;484692;245;28301;-77
2021/10/04 08:44:17;;;;;;;1.17;1.17;;;12.80;99.90;;;;;;484917;245;28267;-76
2021/10/04 08:46:19;;;;;;;1.20;1.20;;;;;;;;;;484926;245;28863;-76
2021/10/04 08:48:21;;;;;;;1.10;1.10;;;12.90;99.90;;;;;;486140;242;26660;-77
2021/10/04 08:50:22;;;;;;;1.10;1.10;;;12.90;99.90;;;;;;491524;241;28764;-77
2021/10/04 08:52:23;;;;;;;1.00;1.00;;;13.00;99.90;;;;;;491449;241;28645;-77
2021/10/04 08:54:29;;;;;;;1.13;1.13;;;13.00;99.90;;;;;;491495;241;28843;-76
2021/10/04 08:56:29;;;;;;;1.00;1.00;;;13.10;99.90;;;;;;491451;242;28625;-76
2021/10/04 08:58:32;;;;;;;1.00;1.00;;;13.10;99.90;;;;;;491437;241;28816;-76
2021/10/04 09:00:31;;;;;;;1.00;1.00;;;13.10;99.90;;;;;;491196;242;28631;-77
2021/10/04 09:02:32;;;;;;;1.10;1.10;;;13.10;99.90;;;;;;491407;241;28122;-76
2021/10/04 09:04:34;;;;;;;1.00;1.00;;;13.20;99.90;;;;;;491472;241;28216;-77
2021/10/04 09:06:35;;;;;;;1.23;1.13;;;13.20;99.90;;;;;;491505;241;28178;-76
2021/10/04 09:08:36;;;;;;;0.97;0.97;;;13.20;99.90;;;;;;491418;241;28222;-77
2021/10/04 09:10:41;;;;;;;0.93;0.93;;;13.20;99.90;;;;;;491419;241;28158;-77
2021/10/04 09:12:40;;;;;;;1.00;1.00;;;;;;;;;;491251;242;28230;-76
2021/10/04 09:14:41;;;;;;;0.97;0.97;;;13.20;99.90;;;;;;491457;242;26461;-76
2021/10/04 09:16:42;;;;;;;1.10;1.00;;;13.20;99.90;;;;;;491498;241;28237;-77
2021/10/04 09:18:44;;;;;;;1.20;1.20;;;13.10;99.90;;;;;;491441;241;28380;-76
2021/10/04 09:20:45;;;;;;;1.57;1.00;;;13.10;99.90;;;;;;491434;241;28196;-76
2021/10/04 09:22:47;;;;;;;1.10;1.10;;;;;;;;;;491465;241;28116;-76
2021/10/04 09:24:48;;;;;;;1.00;1.00;;;13.10;99.90;;;;;;491459;242;26901;-76
2021/10/04 09:26:50;;;;;;;0.93;0.93;;;13.10;99.90;;;;;;491440;241;28631;-76
2021/10/04 09:28:51;;;;;;;0.93;0.93;;;13.10;99.90;;;;;;491406;241;28649;-76
2021/10/04 09:30:54;;;;;;;0.90;0.90;;;13.20;99.90;;;;;;491375;241;28274;-76
2021/10/04 09:32:53;;;;;;;1.00;1.00;;;13.20;99.90;;;;;;491375;241;28110;-77
2021/10/04 09:34:55;;;;;;;0.90;0.90;;;13.20;99.90;;;;;;491428;241;28219;-76
2021/10/04 09:36:56;;;;;;;1.10;1.10;;;13.30;99.90;;;;;;491452;242;28184;-76
2021/10/04 09:38:57;;;;;;;1.10;1.00;;;13.30;99.90;;;;;;491415;241;28181;-76
2021/10/04 09:40:58;;;;;;;1.00;1.00;;;13.30;99.90;;;;;;491413;241;28325;-76
2021/10/04 09:43:03;;;;;;;1.07;1.07;;;;;;;;;;491421;241;28187;-76
2021/10/04 09:45:02;;;;;;;1.30;1.20;;;13.30;99.90;;;;;;491314;242;26486;-76
2021/10/04 09:47:03;;;;;;;1.10;1.10;;;13.30;99.90;;;;;;491382;241;28214;-76
2021/10/04 09:49:05;;;;;;;1.00;1.00;;;13.40;99.90;;;;;;491386;241;28284;-76
2021/10/04 09:51:06;;;;;;;0.90;0.90;;;13.50;99.90;;;;;;491414;241;28090;-76
2021/10/04 09:53:07;;;;;;;0.93;0.93;;;13.50;99.90;;;;;;491465;241;28204;-76
2021/10/04 09:55:08;;;;;;;1.00;1.00;;;13.50;99.90;;;;;;491470;241;28194;-75
2021/10/04 09:57:10;;;;;;;0.90;0.90;;;13.50;99.90;;;;;;491400;241;28144;-76
2021/10/04 09:59:11;;;;;;;1.03;0.90;;;13.50;99.90;;;;;;491401;241;28186;-75
2021/10/04 10:01:12;;;;;;;0.90;0.90;;;13.50;99.90;;;;;;491438;241;28775;-76
2021/10/04 10:03:13;;;;;;;1.20;1.20;;;13.50;99.90;;;;;;491442;241;28691;-76
2021/10/04 10:05:15;;;;;;;1.30;1.30;;;13.60;99.90;;;;;;491456;241;28634;-76
2021/10/04 10:07:16;;;;;;;1.10;1.10;;;13.60;99.90;;;;;;491440;241;28174;-76
2021/10/04 10:09:17;;;;;;;1.00;1.00;;;13.70;99.90;;;;;;491415;241;28409;-75
2021/10/04 10:11:21;;;;;;;2.07;1.50;;;13.70;99.90;;;;;;491336;241;28265;-76
2021/10/04 10:13:21;;;;;;;1.00;1.00;;;13.60;99.90;;;;;;491184;242;28367;-76
2021/10/04 10:15:21;;;;;;;1.37;1.27;;;13.50;99.90;;;;;;491352;242;28555;-76
2021/10/04 10:17:22;;;;;;;3.67;1.10;;;13.40;99.90;;;;;;491440;242;28141;-76
2021/10/04 10:19:26;;;;;;;2.10;1.17;;;13.40;99.90;;;;;;491405;241;28365;-76
2021/10/04 10:21:25;;;;;;;1.10;1.10;;;13.30;99.90;;;;;;491216;242;28295;-76
2021/10/04 10:23:26;;;;;;;1.00;1.00;;;13.30;99.90;;;;;;491449;241;28125;-76
2021/10/04 10:25:27;;;;;;;1.37;1.27;;;13.40;99.90;;;;;;491403;241;28717;-76
2021/10/04 10:27:28;;;;;;;1.13;1.10;;;13.40;99.90;;;;;;491447;241;28666;-76
2021/10/04 10:29:30;;;;;;;1.07;1.07;;;13.50;99.90;;;;;;491452;241;28718;-76
2021/10/04 10:31:31;;;;;;;0.93;0.93;;;13.60;99.90;;;;;;491413;241;28915;-75